Weather at McGhee Tyson Airport

Public forecast

Using degrees Fahrenheit for public forecast. Weather courtesy of forecast.io.

Current aviation weather report (METAR) for McGhee Tyson Airport

Retrieved 2020/10/26 14:13 UTC (15 minutes ago):

KTYS 261413Z 00000KT 7SM OVC005 18/18 A3011

Aviation forecast (TAF) for McGhee Tyson Airport

Retrieved 2020/10/26 12:30 UTC (2 hours ago):

TAF KTYS 261127Z 2612/2712 VRB03KT P6SM BKN009 OVC015 FM261600 VRB03KT P6SM BKN025 FM261800 26005KT P6SM BKN035 FM270200 35004KT P6SM BKN025 FM270900 VRB03KT 3SM BR SCT005 BKN015